createdAt,value
2023-02-16T00:00:45.552Z,69.20
2023-02-16T00:06:14.597Z,65.70
2023-02-16T00:11:46.182Z,65.80
2023-02-16T00:16:51.004Z,68.70
2023-02-16T00:21:56.625Z,73.00
2023-02-16T00:27:01.138Z,68.20
2023-02-16T00:32:06.389Z,63.10
2023-02-16T00:37:13.365Z,69.70
2023-02-16T00:42:24.673Z,70.60
2023-02-16T00:47:35.024Z,73.70
2023-02-16T00:52:46.547Z,67.40
2023-02-16T00:58:18.006Z,71.20
2023-02-16T01:03:25.274Z,76.20
2023-02-16T01:08:47.526Z,72.10
2023-02-16T01:13:52.271Z,70.30
2023-02-16T01:18:55.633Z,70.80
2023-02-16T01:23:59.044Z,72.70
2023-02-16T01:29:02.439Z,68.60
2023-02-16T01:34:06.301Z,59.90
2023-02-16T01:39:14.741Z,63.10
2023-02-16T01:44:25.967Z,71.10
2023-02-16T01:49:29.470Z,66.00
2023-02-16T01:54:51.268Z,49.70
2023-02-16T01:59:54.616Z,56.90
2023-02-16T02:05:35.788Z,65.50
2023-02-16T02:11:07.423Z,73.80
2023-02-16T02:16:11.649Z,72.40
2023-02-16T02:22:27.200Z,66.50
2023-02-16T02:28:01.819Z,66.80
2023-02-16T02:33:11.110Z,59.70
2023-02-16T02:38:14.720Z,55.50
2023-02-16T02:43:39.297Z,66.00
2023-02-16T02:48:42.730Z,71.00
2023-02-16T02:54:12.148Z,60.30
2023-02-16T02:59:34.252Z,54.60
2023-02-16T03:04:37.657Z,56.30
2023-02-16T03:09:41.223Z,65.90
2023-02-16T03:14:50.293Z,81.00
2023-02-16T03:20:13.192Z,62.20
2023-02-16T03:25:36.043Z,75.20
2023-02-16T03:30:39.687Z,66.80
2023-02-16T03:35:45.380Z,78.00
2023-02-16T03:40:50.998Z,70.60
2023-02-16T03:45:55.801Z,62.80
2023-02-16T03:50:59.167Z,59.30
2023-02-16T03:56:02.437Z,63.80
2023-02-16T04:01:06.133Z,71.20
2023-02-16T04:06:10.230Z,67.10
2023-02-16T04:11:32.295Z,72.80
2023-02-16T04:16:35.630Z,76.90
2023-02-16T04:21:39.043Z,75.20
2023-02-16T04:26:42.400Z,81.30
2023-02-16T04:31:45.887Z,103.70
2023-02-16T04:36:49.508Z,69.70
2023-02-16T04:41:53.460Z,75.30
2023-02-16T04:46:57.015Z,63.60
2023-02-16T04:52:01.832Z,81.30
2023-02-16T04:57:05.849Z,74.30
2023-02-16T05:02:09.394Z,64.40
2023-02-16T05:07:12.748Z,64.90
2023-02-16T05:12:34.625Z,80.80
2023-02-16T05:17:38.120Z,84.90
2023-02-16T05:22:41.737Z,70.90
2023-02-16T05:27:45.106Z,70.50
2023-02-16T05:32:48.401Z,61.90
2023-02-16T05:37:51.823Z,75.10
2023-02-16T05:42:55.693Z,62.50
2023-02-16T05:47:59.109Z,76.70
2023-02-16T05:53:02.559Z,74.70
2023-02-16T05:58:06.608Z,82.90
2023-02-16T06:03:09.982Z,87.60
2023-02-16T06:08:13.575Z,86.50
2023-02-16T06:13:17.702Z,91.70
2023-02-16T06:18:21.135Z,75.10
2023-02-16T06:23:24.415Z,62.10
2023-02-16T06:28:28.016Z,82.10
2023-02-16T06:33:31.433Z,81.80
2023-02-16T06:38:35.133Z,81.70
2023-02-16T06:43:42.050Z,90.40
2023-02-16T06:48:46.334Z,84.40
2023-02-16T06:53:51.141Z,81.50
2023-02-16T06:58:54.623Z,73.10
2023-02-16T07:03:59.403Z,72.20
2023-02-16T07:09:16.401Z,61.70
2023-02-16T07:14:32.722Z,63.90
2023-02-16T07:19:47.927Z,64.40
2023-02-16T07:24:51.585Z,77.30
2023-02-16T07:29:55.028Z,71.90
2023-02-16T07:34:58.415Z,62.70
2023-02-16T07:40:01.845Z,67.50
2023-02-16T07:45:09.815Z,55.10
2023-02-16T07:50:14.070Z,48.40
2023-02-16T07:55:17.667Z,60.50
2023-02-16T08:00:22.040Z,71.60
2023-02-16T08:05:29.100Z,66.20
2023-02-16T08:10:33.153Z,59.30
2023-02-16T08:15:49.555Z,63.20
2023-02-16T08:21:03.922Z,65.90
2023-02-16T08:26:17.375Z,66.60
2023-02-16T08:31:41.566Z,72.30
2023-02-16T08:42:33.940Z,76.90
2023-02-16T08:47:37.207Z,72.00
2023-02-16T08:52:41.449Z,54.50
2023-02-16T08:57:44.967Z,75.50
2023-02-16T09:02:48.354Z,63.20
2023-02-16T09:07:58.867Z,54.90
2023-02-16T09:13:02.300Z,80.20
2023-02-16T09:18:05.889Z,75.50
2023-02-16T09:23:13.498Z,51.50
2023-02-16T09:28:17.349Z,64.40
2023-02-16T09:33:22.057Z,58.20
2023-02-16T09:38:28.150Z,61.40
2023-02-16T09:43:47.716Z,76.20
2023-02-16T09:48:53.190Z,76.30
2023-02-16T09:54:14.775Z,49.30
2023-02-16T09:59:41.288Z,57.50
2023-02-16T10:05:02.902Z,71.90
2023-02-16T10:10:08.366Z,66.60
2023-02-16T10:15:27.211Z,75.20
2023-02-16T10:20:38.089Z,71.40
2023-02-16T10:25:55.154Z,71.40
2023-02-16T10:31:06.578Z,60.10
2023-02-16T10:36:42.842Z,52.10
2023-02-16T10:41:56.335Z,64.50
2023-02-16T10:47:04.835Z,73.60
2023-02-16T10:52:09.423Z,66.90
2023-02-16T10:57:40.088Z,71.90
2023-02-16T11:02:59.064Z,69.00
2023-02-16T11:08:03.752Z,72.20
2023-02-16T11:13:35.178Z,77.70
2023-02-16T11:18:46.241Z,66.70
2023-02-16T11:24:04.431Z,60.70
2023-02-16T11:35:23.001Z,63.70
2023-02-16T11:40:31.089Z,71.70
2023-02-16T11:45:36.802Z,65.10
2023-02-16T11:50:55.649Z,65.20
2023-02-16T11:56:22.629Z,53.80
2023-02-16T12:01:41.437Z,59.20
2023-02-16T12:06:52.253Z,70.50
2023-02-16T12:11:58.544Z,67.30
2023-02-16T12:17:18.070Z,57.50
2023-02-16T12:22:55.433Z,67.00
2023-02-16T12:28:34.080Z,62.50
2023-02-16T12:33:43.782Z,63.10
2023-02-16T12:39:00.153Z,48.70
2023-02-16T12:44:11.322Z,62.80
2023-02-16T12:49:21.941Z,67.30
2023-02-16T12:54:48.932Z,74.00
2023-02-16T13:00:30.645Z,50.50
2023-02-16T13:05:40.749Z,65.00
2023-02-16T13:10:58.017Z,64.00
2023-02-16T13:16:30.796Z,69.60
2023-02-16T13:21:54.882Z,55.90
2023-02-16T13:27:22.176Z,58.00
2023-02-16T13:32:45.236Z,71.80
2023-02-16T13:38:03.348Z,69.90
2023-02-16T13:43:36.960Z,63.20
2023-02-16T13:48:48.340Z,54.60
2023-02-16T13:54:03.537Z,71.60
2023-02-16T13:59:19.654Z,71.50
2023-02-16T14:04:23.409Z,63.20
2023-02-16T14:09:39.179Z,72.00
2023-02-16T14:14:43.345Z,76.10
2023-02-16T14:19:58.302Z,70.90
2023-02-16T14:25:06.736Z,77.80
2023-02-16T14:30:21.877Z,83.20
2023-02-16T14:35:34.240Z,90.40
2023-02-16T14:40:48.578Z,79.50
2023-02-16T14:46:02.454Z,76.10
2023-02-16T14:51:29.296Z,96.80
2023-02-16T14:56:55.916Z,76.40
2023-02-16T15:02:00.158Z,72.20
2023-02-16T15:07:06.576Z,91.30
2023-02-16T15:12:22.865Z,98.70
2023-02-16T15:17:35.732Z,81.10
2023-02-16T15:22:44.989Z,98.50
2023-02-16T15:28:00.605Z,95.00
2023-02-16T15:33:07.810Z,102.80
2023-02-16T15:38:25.102Z,103.20
2023-02-16T15:43:47.119Z,103.90
2023-02-16T15:48:51.211Z,98.60
2023-02-16T15:54:04.116Z,106.90
2023-02-16T15:59:28.312Z,117.80
2023-02-16T16:04:38.911Z,111.70
2023-02-16T16:09:44.015Z,124.20
2023-02-16T16:15:10.454Z,106.10
2023-02-16T16:20:32.702Z,124.00
2023-02-16T16:25:47.053Z,111.30
2023-02-16T16:31:08.422Z,131.00
2023-02-16T16:36:12.863Z,127.30
2023-02-16T16:41:28.010Z,134.50
2023-02-16T16:46:33.440Z,144.50
2023-02-16T16:51:41.458Z,138.30
2023-02-16T16:56:44.921Z,161.40
2023-02-16T17:01:54.971Z,153.90
2023-02-16T17:07:04.451Z,165.70
2023-02-16T17:12:12.390Z,146.30
2023-02-16T17:17:19.314Z,163.30
2023-02-16T17:22:22.947Z,155.10
2023-02-16T17:27:26.643Z,166.80
2023-02-16T17:32:30.503Z,153.90
2023-02-16T17:37:36.422Z,151.30
2023-02-16T17:42:42.709Z,170.40
2023-02-16T17:47:49.839Z,149.80
2023-02-16T17:52:57.541Z,155.40
2023-02-16T17:58:01.865Z,152.50
2023-02-16T18:03:07.418Z,167.60
2023-02-16T18:08:15.053Z,169.20
2023-02-16T18:13:19.391Z,159.40
2023-02-16T18:18:23.139Z,163.70
2023-02-16T18:23:26.681Z,169.80
2023-02-16T18:28:33.674Z,185.90
2023-02-16T18:33:37.321Z,158.00
2023-02-16T18:38:41.978Z,199.80
2023-02-16T18:43:46.434Z,187.90
2023-02-16T18:48:49.871Z,180.00
2023-02-16T18:53:54.528Z,191.40
2023-02-16T18:58:58.171Z,207.40
2023-02-16T19:04:03.280Z,180.30
2023-02-16T19:09:07.804Z,124.60
2023-02-16T19:14:13.010Z,131.80
2023-02-16T19:19:16.622Z,135.50
2023-02-16T19:24:20.154Z,97.20
2023-02-16T19:29:24.063Z,133.00
2023-02-16T19:34:28.383Z,125.10
2023-02-16T19:39:32.783Z,113.60
2023-02-16T19:44:40.512Z,113.40
2023-02-16T19:49:44.432Z,80.50
2023-02-16T19:54:48.416Z,117.10
2023-02-16T19:59:51.956Z,116.30
2023-02-16T20:04:55.328Z,123.30
2023-02-16T20:09:58.694Z,150.50
2023-02-16T20:15:02.075Z,131.60
2023-02-16T20:20:06.254Z,127.30
2023-02-16T20:25:09.760Z,123.50
2023-02-16T20:30:20.179Z,124.30
2023-02-16T20:35:24.076Z,139.90
2023-02-16T20:40:27.919Z,127.20
2023-02-16T20:45:31.819Z,126.10
2023-02-16T20:50:35.308Z,121.90
2023-02-16T20:55:38.838Z,115.90
2023-02-16T21:00:44.978Z,94.00
2023-02-16T21:05:48.388Z,107.60
2023-02-16T21:10:51.729Z,91.00
2023-02-16T21:15:55.149Z,95.80
2023-02-16T21:21:01.097Z,104.00
2023-02-16T21:26:06.476Z,93.60
2023-02-16T21:31:14.614Z,91.70
2023-02-16T21:36:25.106Z,76.50
2023-02-16T21:41:29.655Z,87.10
2023-02-16T21:46:37.142Z,82.20
2023-02-16T21:51:42.032Z,75.90
2023-02-16T21:56:51.828Z,56.70
2023-02-16T22:01:55.159Z,77.90
2023-02-16T22:06:58.871Z,73.70
2023-02-16T22:12:02.233Z,79.40
2023-02-16T22:17:08.171Z,81.00
2023-02-16T22:22:12.035Z,79.50
2023-02-16T22:27:16.129Z,73.50
2023-02-16T22:32:19.853Z,78.50
2023-02-16T22:37:23.495Z,82.60
2023-02-16T22:42:26.899Z,72.80
2023-02-16T22:47:31.608Z,79.20
2023-02-16T22:52:36.734Z,79.60
2023-02-16T22:57:40.491Z,76.70
2023-02-16T23:02:43.883Z,74.30
2023-02-16T23:07:47.263Z,83.30
2023-02-16T23:12:50.623Z,82.10
2023-02-16T23:17:54.062Z,76.90
2023-02-16T23:22:57.680Z,78.00
2023-02-16T23:28:03.088Z,82.60
2023-02-16T23:33:06.565Z,83.00
2023-02-16T23:38:13.967Z,87.50
2023-02-16T23:43:17.446Z,80.80
2023-02-16T23:48:21.444Z,75.50
2023-02-16T23:53:26.703Z,82.50
2023-02-16T23:58:32.753Z,85.60
